sensor_id;sensor_type;location;lat;lon;timestamp;P1;durP1;ratioP1;P2;durP2;ratioP2
47659;SDS011;33403;43.608;1.458;2023-04-16T00:02:11;4.50;;;1.95;;
47659;SDS011;33403;43.608;1.458;2023-04-16T00:04:37;3.20;;;1.70;;
47659;SDS011;33403;43.608;1.458;2023-04-16T00:07:02;7.38;;;1.88;;
47659;SDS011;33403;43.608;1.458;2023-04-16T00:09:28;4.85;;;1.80;;
47659;SDS011;33403;43.608;1.458;2023-04-16T00:11:54;5.10;;;1.65;;
47659;SDS011;33403;43.608;1.458;2023-04-16T00:14:20;5.10;;;1.90;;
47659;SDS011;33403;43.608;1.458;2023-04-16T00:16:46;3.55;;;1.60;;
47659;SDS011;33403;43.608;1.458;2023-04-16T00:19:11;5.07;;;1.63;;
47659;SDS011;33403;43.608;1.458;2023-04-16T00:21:37;7.00;;;2.20;;
47659;SDS011;33403;43.608;1.458;2023-04-16T00:24:02;7.72;;;1.80;;
47659;SDS011;33403;43.608;1.458;2023-04-16T00:26:28;4.38;;;1.85;;
47659;SDS011;33403;43.608;1.458;2023-04-16T00:28:54;5.38;;;1.73;;
47659;SDS011;33403;43.608;1.458;2023-04-16T00:31:27;5.13;;;1.70;;
47659;SDS011;33403;43.608;1.458;2023-04-16T00:33:57;5.35;;;1.70;;
47659;SDS011;33403;43.608;1.458;2023-04-16T00:36:23;3.97;;;1.63;;
47659;SDS011;33403;43.608;1.458;2023-04-16T00:38:51;3.53;;;1.80;;
47659;SDS011;33403;43.608;1.458;2023-04-16T00:41:17;5.35;;;1.90;;
47659;SDS011;33403;43.608;1.458;2023-04-16T00:43:42;5.47;;;1.92;;
47659;SDS011;33403;43.608;1.458;2023-04-16T00:46:08;5.47;;;2.03;;
47659;SDS011;33403;43.608;1.458;2023-04-16T00:48:34;5.25;;;1.70;;
47659;SDS011;33403;43.608;1.458;2023-04-16T00:51:03;4.05;;;1.70;;
47659;SDS011;33403;43.608;1.458;2023-04-16T00:53:30;5.00;;;2.05;;
47659;SDS011;33403;43.608;1.458;2023-04-16T00:55:56;4.18;;;1.77;;
47659;SDS011;33403;43.608;1.458;2023-04-16T00:58:22;7.72;;;2.40;;
47659;SDS011;33403;43.608;1.458;2023-04-16T01:00:49;5.63;;;1.92;;
47659;SDS011;33403;43.608;1.458;2023-04-16T01:03:15;5.22;;;2.00;;
47659;SDS011;33403;43.608;1.458;2023-04-16T01:05:40;6.65;;;1.80;;
47659;SDS011;33403;43.608;1.458;2023-04-16T01:08:11;6.45;;;2.00;;
47659;SDS011;33403;43.608;1.458;2023-04-16T01:10:40;4.80;;;1.88;;
47659;SDS011;33403;43.608;1.458;2023-04-16T01:13:05;5.75;;;1.85;;
47659;SDS011;33403;43.608;1.458;2023-04-16T01:15:31;7.28;;;2.28;;
47659;SDS011;33403;43.608;1.458;2023-04-16T01:17:56;7.68;;;2.10;;
47659;SDS011;33403;43.608;1.458;2023-04-16T01:20:22;6.18;;;2.10;;
47659;SDS011;33403;43.608;1.458;2023-04-16T01:22:48;6.05;;;2.30;;
47659;SDS011;33403;43.608;1.458;2023-04-16T01:25:13;5.50;;;1.77;;
47659;SDS011;33403;43.608;1.458;2023-04-16T01:27:40;6.25;;;1.88;;
47659;SDS011;33403;43.608;1.458;2023-04-16T01:30:06;4.43;;;2.00;;
47659;SDS011;33403;43.608;1.458;2023-04-16T01:32:32;6.82;;;2.13;;
47659;SDS011;33403;43.608;1.458;2023-04-16T01:34:57;5.88;;;1.83;;
47659;SDS011;33403;43.608;1.458;2023-04-16T01:37:23;4.15;;;2.05;;
47659;SDS011;33403;43.608;1.458;2023-04-16T01:39:48;4.80;;;1.95;;
47659;SDS011;33403;43.608;1.458;2023-04-16T01:42:14;7.35;;;1.73;;
47659;SDS011;33403;43.608;1.458;2023-04-16T01:44:40;6.78;;;1.88;;
47659;SDS011;33403;43.608;1.458;2023-04-16T01:47:05;8.23;;;2.05;;
47659;SDS011;33403;43.608;1.458;2023-04-16T01:49:32;4.20;;;1.80;;
47659;SDS011;33403;43.608;1.458;2023-04-16T01:51:58;8.13;;;1.88;;
47659;SDS011;33403;43.608;1.458;2023-04-16T01:54:24;6.72;;;1.85;;
47659;SDS011;33403;43.608;1.458;2023-04-16T01:56:50;4.57;;;1.88;;
47659;SDS011;33403;43.608;1.458;2023-04-16T01:59:15;8.20;;;1.92;;
47659;SDS011;33403;43.608;1.458;2023-04-16T02:01:41;4.60;;;2.00;;
47659;SDS011;33403;43.608;1.458;2023-04-16T02:04:07;6.22;;;2.10;;
47659;SDS011;33403;43.608;1.458;2023-04-16T02:06:33;4.47;;;1.90;;
47659;SDS011;33403;43.608;1.458;2023-04-16T02:08:59;5.50;;;2.00;;
47659;SDS011;33403;43.608;1.458;2023-04-16T02:11:25;5.10;;;2.05;;
47659;SDS011;33403;43.608;1.458;2023-04-16T02:13:50;8.73;;;1.98;;
47659;SDS011;33403;43.608;1.458;2023-04-16T02:16:16;4.63;;;2.00;;
47659;SDS011;33403;43.608;1.458;2023-04-16T02:18:41;4.75;;;2.15;;
47659;SDS011;33403;43.608;1.458;2023-04-16T02:21:07;7.72;;;2.22;;
47659;SDS011;33403;43.608;1.458;2023-04-16T02:23:33;9.65;;;2.00;;
47659;SDS011;33403;43.608;1.458;2023-04-16T02:25:58;5.55;;;2.05;;
47659;SDS011;33403;43.608;1.458;2023-04-16T02:28:25;3.70;;;1.90;;
47659;SDS011;33403;43.608;1.458;2023-04-16T02:30:50;6.05;;;2.20;;
47659;SDS011;33403;43.608;1.458;2023-04-16T02:33:16;4.63;;;1.77;;
47659;SDS011;33403;43.608;1.458;2023-04-16T02:35:41;5.82;;;2.03;;
47659;SDS011;33403;43.608;1.458;2023-04-16T02:38:07;10.02;;;2.22;;
47659;SDS011;33403;43.608;1.458;2023-04-16T02:40:33;6.22;;;1.90;;
47659;SDS011;33403;43.608;1.458;2023-04-16T02:42:59;6.15;;;2.10;;
47659;SDS011;33403;43.608;1.458;2023-04-16T02:45:25;6.38;;;1.92;;
47659;SDS011;33403;43.608;1.458;2023-04-16T02:47:50;4.70;;;1.90;;
47659;SDS011;33403;43.608;1.458;2023-04-16T02:50:16;8.93;;;2.22;;
47659;SDS011;33403;43.608;1.458;2023-04-16T02:52:42;6.68;;;2.42;;
47659;SDS011;33403;43.608;1.458;2023-04-16T02:55:08;6.63;;;1.88;;
47659;SDS011;33403;43.608;1.458;2023-04-16T02:57:34;6.53;;;2.30;;
47659;SDS011;33403;43.608;1.458;2023-04-16T03:00:00;6.80;;;2.00;;
47659;SDS011;33403;43.608;1.458;2023-04-16T03:02:28;3.78;;;2.00;;
47659;SDS011;33403;43.608;1.458;2023-04-16T03:04:53;6.40;;;2.07;;
47659;SDS011;33403;43.608;1.458;2023-04-16T03:07:19;6.97;;;1.88;;
47659;SDS011;33403;43.608;1.458;2023-04-16T03:09:45;8.00;;;2.10;;
47659;SDS011;33403;43.608;1.458;2023-04-16T03:12:11;7.03;;;2.22;;
47659;SDS011;33403;43.608;1.458;2023-04-16T03:14:36;4.70;;;2.10;;
47659;SDS011;33403;43.608;1.458;2023-04-16T03:17:02;5.60;;;1.92;;
47659;SDS011;33403;43.608;1.458;2023-04-16T03:19:28;5.43;;;2.33;;
47659;SDS011;33403;43.608;1.458;2023-04-16T03:21:53;9.10;;;2.28;;
47659;SDS011;33403;43.608;1.458;2023-04-16T03:24:19;7.00;;;2.13;;
47659;SDS011;33403;43.608;1.458;2023-04-16T03:26:45;6.77;;;2.20;;
47659;SDS011;33403;43.608;1.458;2023-04-16T03:29:11;8.23;;;2.20;;
47659;SDS011;33403;43.608;1.458;2023-04-16T03:31:36;5.82;;;2.22;;
47659;SDS011;33403;43.608;1.458;2023-04-16T03:34:02;10.30;;;2.33;;
47659;SDS011;33403;43.608;1.458;2023-04-16T03:36:28;8.07;;;2.10;;
47659;SDS011;33403;43.608;1.458;2023-04-16T03:38:53;6.37;;;2.20;;
47659;SDS011;33403;43.608;1.458;2023-04-16T03:41:19;7.47;;;2.00;;
47659;SDS011;33403;43.608;1.458;2023-04-16T03:43:45;7.97;;;2.30;;
47659;SDS011;33403;43.608;1.458;2023-04-16T03:46:10;6.83;;;2.07;;
47659;SDS011;33403;43.608;1.458;2023-04-16T03:48:36;8.10;;;2.13;;
47659;SDS011;33403;43.608;1.458;2023-04-16T03:51:02;8.27;;;2.33;;
47659;SDS011;33403;43.608;1.458;2023-04-16T03:53:27;8.15;;;2.45;;
47659;SDS011;33403;43.608;1.458;2023-04-16T03:55:53;6.93;;;2.30;;
47659;SDS011;33403;43.608;1.458;2023-04-16T03:58:19;6.20;;;2.30;;
47659;SDS011;33403;43.608;1.458;2023-04-16T04:00:45;6.53;;;2.40;;
47659;SDS011;33403;43.608;1.458;2023-04-16T04:03:11;7.10;;;2.27;;
47659;SDS011;33403;43.608;1.458;2023-04-16T04:05:40;6.53;;;2.30;;
47659;SDS011;33403;43.608;1.458;2023-04-16T04:08:07;6.03;;;2.53;;
47659;SDS011;33403;43.608;1.458;2023-04-16T04:10:33;6.57;;;2.30;;
47659;SDS011;33403;43.608;1.458;2023-04-16T04:13:01;5.05;;;1.85;;
47659;SDS011;33403;43.608;1.458;2023-04-16T04:15:28;4.20;;;2.10;;
47659;SDS011;33403;43.608;1.458;2023-04-16T04:17:54;6.93;;;2.23;;
47659;SDS011;33403;43.608;1.458;2023-04-16T04:20:20;6.57;;;2.20;;
47659;SDS011;33403;43.608;1.458;2023-04-16T04:22:46;9.05;;;2.38;;
47659;SDS011;33403;43.608;1.458;2023-04-16T04:25:12;6.28;;;2.63;;
47659;SDS011;33403;43.608;1.458;2023-04-16T04:27:37;4.03;;;2.13;;
47659;SDS011;33403;43.608;1.458;2023-04-16T04:30:03;5.40;;;2.30;;
47659;SDS011;33403;43.608;1.458;2023-04-16T04:32:30;5.70;;;2.37;;
47659;SDS011;33403;43.608;1.458;2023-04-16T04:34:56;10.03;;;2.63;;
47659;SDS011;33403;43.608;1.458;2023-04-16T04:37:22;9.13;;;2.47;;
47659;SDS011;33403;43.608;1.458;2023-04-16T04:39:47;6.00;;;2.40;;
47659;SDS011;33403;43.608;1.458;2023-04-16T04:42:15;6.50;;;2.40;;
47659;SDS011;33403;43.608;1.458;2023-04-16T04:44:42;5.00;;;2.63;;
47659;SDS011;33403;43.608;1.458;2023-04-16T04:47:08;3.47;;;2.72;;
47659;SDS011;33403;43.608;1.458;2023-04-16T04:49:33;5.90;;;2.33;;
47659;SDS011;33403;43.608;1.458;2023-04-16T04:51:59;5.90;;;2.53;;
47659;SDS011;33403;43.608;1.458;2023-04-16T04:54:25;5.88;;;2.30;;
47659;SDS011;33403;43.608;1.458;2023-04-16T04:56:52;7.60;;;2.60;;
47659;SDS011;33403;43.608;1.458;2023-04-16T04:59:19;5.73;;;2.50;;
47659;SDS011;33403;43.608;1.458;2023-04-16T05:01:45;5.23;;;2.40;;
47659;SDS011;33403;43.608;1.458;2023-04-16T05:04:11;6.70;;;2.73;;
47659;SDS011;33403;43.608;1.458;2023-04-16T05:06:36;8.57;;;2.60;;
47659;SDS011;33403;43.608;1.458;2023-04-16T05:09:02;9.90;;;2.53;;
47659;SDS011;33403;43.608;1.458;2023-04-16T05:11:28;6.97;;;2.67;;
47659;SDS011;33403;43.608;1.458;2023-04-16T05:13:54;6.53;;;2.07;;
47659;SDS011;33403;43.608;1.458;2023-04-16T05:16:19;7.78;;;2.40;;
47659;SDS011;33403;43.608;1.458;2023-04-16T05:18:45;6.43;;;2.50;;
47659;SDS011;33403;43.608;1.458;2023-04-16T05:21:11;7.23;;;2.77;;
47659;SDS011;33403;43.608;1.458;2023-04-16T05:23:36;9.57;;;2.60;;
47659;SDS011;33403;43.608;1.458;2023-04-16T05:26:02;9.17;;;2.63;;
47659;SDS011;33403;43.608;1.458;2023-04-16T05:28:28;8.63;;;2.37;;
47659;SDS011;33403;43.608;1.458;2023-04-16T05:30:55;7.30;;;2.28;;
47659;SDS011;33403;43.608;1.458;2023-04-16T05:33:20;6.90;;;2.67;;
47659;SDS011;33403;43.608;1.458;2023-04-16T05:35:46;8.27;;;2.33;;
47659;SDS011;33403;43.608;1.458;2023-04-16T05:38:11;7.15;;;2.63;;
47659;SDS011;33403;43.608;1.458;2023-04-16T05:40:37;9.52;;;2.70;;
47659;SDS011;33403;43.608;1.458;2023-04-16T05:43:03;8.57;;;2.58;;
47659;SDS011;33403;43.608;1.458;2023-04-16T05:45:28;5.37;;;2.03;;
47659;SDS011;33403;43.608;1.458;2023-04-16T05:47:57;12.50;;;2.70;;
47659;SDS011;33403;43.608;1.458;2023-04-16T05:50:22;7.27;;;2.50;;
47659;SDS011;33403;43.608;1.458;2023-04-16T05:52:48;9.53;;;2.70;;
47659;SDS011;33403;43.608;1.458;2023-04-16T05:55:14;5.87;;;2.60;;
47659;SDS011;33403;43.608;1.458;2023-04-16T05:57:39;8.60;;;2.63;;
47659;SDS011;33403;43.608;1.458;2023-04-16T06:00:06;7.67;;;2.40;;
47659;SDS011;33403;43.608;1.458;2023-04-16T06:02:32;6.57;;;2.40;;
47659;SDS011;33403;43.608;1.458;2023-04-16T06:04:58;6.87;;;2.80;;
47659;SDS011;33403;43.608;1.458;2023-04-16T06:07:24;5.53;;;2.20;;
47659;SDS011;33403;43.608;1.458;2023-04-16T06:09:49;6.57;;;2.53;;
47659;SDS011;33403;43.608;1.458;2023-04-16T06:12:15;7.83;;;2.40;;
47659;SDS011;33403;43.608;1.458;2023-04-16T06:14:40;8.00;;;2.60;;
47659;SDS011;33403;43.608;1.458;2023-04-16T06:17:06;7.00;;;2.43;;
47659;SDS011;33403;43.608;1.458;2023-04-16T06:19:32;9.20;;;2.60;;
47659;SDS011;33403;43.608;1.458;2023-04-16T06:21:57;7.55;;;2.58;;
47659;SDS011;33403;43.608;1.458;2023-04-16T06:24:23;6.47;;;2.80;;
47659;SDS011;33403;43.608;1.458;2023-04-16T06:26:49;7.47;;;2.50;;
47659;SDS011;33403;43.608;1.458;2023-04-16T06:29:14;8.50;;;2.77;;
47659;SDS011;33403;43.608;1.458;2023-04-16T06:31:40;9.10;;;2.63;;
47659;SDS011;33403;43.608;1.458;2023-04-16T06:34:06;5.57;;;2.20;;
47659;SDS011;33403;43.608;1.458;2023-04-16T06:36:32;6.87;;;2.40;;
47659;SDS011;33403;43.608;1.458;2023-04-16T06:38:57;7.47;;;2.43;;
47659;SDS011;33403;43.608;1.458;2023-04-16T06:41:23;9.93;;;2.53;;
47659;SDS011;33403;43.608;1.458;2023-04-16T06:43:50;8.60;;;2.60;;
47659;SDS011;33403;43.608;1.458;2023-04-16T06:46:16;7.80;;;2.60;;
47659;SDS011;33403;43.608;1.458;2023-04-16T06:48:41;6.93;;;2.53;;
47659;SDS011;33403;43.608;1.458;2023-04-16T06:51:07;6.93;;;2.43;;
47659;SDS011;33403;43.608;1.458;2023-04-16T06:53:33;7.17;;;2.77;;
47659;SDS011;33403;43.608;1.458;2023-04-16T06:56:01;5.00;;;2.30;;
47659;SDS011;33403;43.608;1.458;2023-04-16T06:58:27;8.07;;;3.00;;
47659;SDS011;33403;43.608;1.458;2023-04-16T07:00:53;5.05;;;2.33;;
47659;SDS011;33403;43.608;1.458;2023-04-16T07:03:18;4.97;;;2.43;;
47659;SDS011;33403;43.608;1.458;2023-04-16T07:05:44;6.57;;;2.28;;
47659;SDS011;33403;43.608;1.458;2023-04-16T07:08:09;6.43;;;2.30;;
47659;SDS011;33403;43.608;1.458;2023-04-16T07:10:35;8.10;;;2.30;;
47659;SDS011;33403;43.608;1.458;2023-04-16T07:13:01;6.68;;;2.58;;
47659;SDS011;33403;43.608;1.458;2023-04-16T07:15:27;7.40;;;2.50;;
47659;SDS011;33403;43.608;1.458;2023-04-16T07:17:53;7.65;;;2.55;;
47659;SDS011;33403;43.608;1.458;2023-04-16T07:20:19;5.40;;;2.20;;
47659;SDS011;33403;43.608;1.458;2023-04-16T07:22:45;6.95;;;2.42;;
47659;SDS011;33403;43.608;1.458;2023-04-16T07:25:11;6.70;;;2.10;;
47659;SDS011;33403;43.608;1.458;2023-04-16T07:27:36;7.63;;;2.35;;
47659;SDS011;33403;43.608;1.458;2023-04-16T07:30:02;9.35;;;2.35;;
47659;SDS011;33403;43.608;1.458;2023-04-16T07:32:28;8.05;;;2.50;;
47659;SDS011;33403;43.608;1.458;2023-04-16T07:34:53;7.13;;;2.50;;
47659;SDS011;33403;43.608;1.458;2023-04-16T07:37:20;7.80;;;2.50;;
47659;SDS011;33403;43.608;1.458;2023-04-16T07:39:46;9.23;;;2.40;;
47659;SDS011;33403;43.608;1.458;2023-04-16T07:42:12;5.43;;;2.22;;
47659;SDS011;33403;43.608;1.458;2023-04-16T07:44:38;6.57;;;2.15;;
47659;SDS011;33403;43.608;1.458;2023-04-16T07:47:04;9.20;;;2.15;;
47659;SDS011;33403;43.608;1.458;2023-04-16T07:49:29;5.40;;;2.28;;
47659;SDS011;33403;43.608;1.458;2023-04-16T07:51:55;5.50;;;2.20;;
47659;SDS011;33403;43.608;1.458;2023-04-16T07:54:21;4.65;;;2.08;;
47659;SDS011;33403;43.608;1.458;2023-04-16T07:56:47;7.43;;;2.55;;
47659;SDS011;33403;43.608;1.458;2023-04-16T07:59:12;7.40;;;2.08;;
47659;SDS011;33403;43.608;1.458;2023-04-16T08:01:38;5.82;;;2.20;;
47659;SDS011;33403;43.608;1.458;2023-04-16T08:04:03;8.52;;;2.60;;
47659;SDS011;33403;43.608;1.458;2023-04-16T08:06:29;6.82;;;2.15;;
47659;SDS011;33403;43.608;1.458;2023-04-16T08:08:55;10.40;;;2.08;;
47659;SDS011;33403;43.608;1.458;2023-04-16T08:11:21;5.72;;;1.92;;
47659;SDS011;33403;43.608;1.458;2023-04-16T08:13:46;7.68;;;2.22;;
47659;SDS011;33403;43.608;1.458;2023-04-16T08:16:12;6.43;;;2.30;;
47659;SDS011;33403;43.608;1.458;2023-04-16T08:18:37;3.05;;;1.92;;
47659;SDS011;33403;43.608;1.458;2023-04-16T08:21:03;6.03;;;2.20;;
47659;SDS011;33403;43.608;1.458;2023-04-16T08:23:29;8.15;;;1.95;;
47659;SDS011;33403;43.608;1.458;2023-04-16T08:25:54;9.55;;;2.50;;
47659;SDS011;33403;43.608;1.458;2023-04-16T08:28:20;5.00;;;2.20;;
47659;SDS011;33403;43.608;1.458;2023-04-16T08:30:46;7.20;;;2.03;;
47659;SDS011;33403;43.608;1.458;2023-04-16T08:33:12;4.22;;;1.98;;
47659;SDS011;33403;43.608;1.458;2023-04-16T08:35:38;6.82;;;2.15;;
47659;SDS011;33403;43.608;1.458;2023-04-16T08:38:04;5.45;;;1.98;;
47659;SDS011;33403;43.608;1.458;2023-04-16T08:40:31;6.57;;;2.00;;
47659;SDS011;33403;43.608;1.458;2023-04-16T08:43:01;5.57;;;2.33;;
47659;SDS011;33403;43.608;1.458;2023-04-16T08:45:33;7.93;;;2.30;;
47659;SDS011;33403;43.608;1.458;2023-04-16T08:48:00;7.30;;;2.33;;
47659;SDS011;33403;43.608;1.458;2023-04-16T08:50:28;5.70;;;2.28;;
47659;SDS011;33403;43.608;1.458;2023-04-16T08:52:58;5.05;;;2.00;;
47659;SDS011;33403;43.608;1.458;2023-04-16T08:55:40;6.28;;;2.28;;
47659;SDS011;33403;43.608;1.458;2023-04-16T08:58:17;5.00;;;2.10;;
47659;SDS011;33403;43.608;1.458;2023-04-16T09:00:45;6.20;;;2.22;;
47659;SDS011;33403;43.608;1.458;2023-04-16T09:03:13;8.20;;;2.10;;
47659;SDS011;33403;43.608;1.458;2023-04-16T09:05:39;5.90;;;1.88;;
47659;SDS011;33403;43.608;1.458;2023-04-16T09:08:06;4.80;;;1.83;;
47659;SDS011;33403;43.608;1.458;2023-04-16T09:10:33;4.90;;;1.90;;
47659;SDS011;33403;43.608;1.458;2023-04-16T09:12:59;4.32;;;1.85;;
47659;SDS011;33403;43.608;1.458;2023-04-16T09:15:25;4.70;;;1.92;;
47659;SDS011;33403;43.608;1.458;2023-04-16T09:17:51;4.57;;;1.98;;
47659;SDS011;33403;43.608;1.458;2023-04-16T09:20:17;7.07;;;2.20;;
47659;SDS011;33403;43.608;1.458;2023-04-16T09:22:43;7.55;;;2.00;;
47659;SDS011;33403;43.608;1.458;2023-04-16T09:25:10;6.43;;;2.25;;
47659;SDS011;33403;43.608;1.458;2023-04-16T09:27:36;5.93;;;2.20;;
47659;SDS011;33403;43.608;1.458;2023-04-16T09:32:48;4.75;;;2.03;;
47659;SDS011;33403;43.608;1.458;2023-04-16T09:35:15;4.57;;;2.13;;
47659;SDS011;33403;43.608;1.458;2023-04-16T09:37:42;4.32;;;1.90;;
47659;SDS011;33403;43.608;1.458;2023-04-16T09:40:08;6.38;;;2.10;;
47659;SDS011;33403;43.608;1.458;2023-04-16T09:42:35;4.15;;;1.90;;
47659;SDS011;33403;43.608;1.458;2023-04-16T09:45:01;5.80;;;2.05;;
47659;SDS011;33403;43.608;1.458;2023-04-16T09:47:38;4.78;;;1.80;;
47659;SDS011;33403;43.608;1.458;2023-04-16T09:50:05;3.25;;;1.90;;
47659;SDS011;33403;43.608;1.458;2023-04-16T09:52:34;6.90;;;2.03;;
47659;SDS011;33403;43.608;1.458;2023-04-16T09:55:04;5.32;;;1.90;;
47659;SDS011;33403;43.608;1.458;2023-04-16T09:57:30;6.03;;;1.80;;
47659;SDS011;33403;43.608;1.458;2023-04-16T10:00:06;4.88;;;2.03;;
47659;SDS011;33403;43.608;1.458;2023-04-16T10:02:33;7.03;;;1.90;;
47659;SDS011;33403;43.608;1.458;2023-04-16T10:05:02;4.63;;;2.05;;
47659;SDS011;33403;43.608;1.458;2023-04-16T10:07:30;2.65;;;1.75;;
47659;SDS011;33403;43.608;1.458;2023-04-16T10:09:58;4.25;;;1.70;;
47659;SDS011;33403;43.608;1.458;2023-04-16T10:12:24;4.22;;;1.83;;
47659;SDS011;33403;43.608;1.458;2023-04-16T10:14:51;4.18;;;1.70;;
47659;SDS011;33403;43.608;1.458;2023-04-16T10:17:16;5.30;;;1.90;;
47659;SDS011;33403;43.608;1.458;2023-04-16T10:19:43;3.95;;;1.88;;
47659;SDS011;33403;43.608;1.458;2023-04-16T10:22:10;5.18;;;1.80;;
47659;SDS011;33403;43.608;1.458;2023-04-16T10:24:36;3.67;;;1.63;;
47659;SDS011;33403;43.608;1.458;2023-04-16T10:27:02;4.78;;;2.05;;
47659;SDS011;33403;43.608;1.458;2023-04-16T10:29:28;5.13;;;2.05;;
47659;SDS011;33403;43.608;1.458;2023-04-16T10:31:55;3.45;;;1.88;;
47659;SDS011;33403;43.608;1.458;2023-04-16T10:34:22;4.40;;;1.83;;
47659;SDS011;33403;43.608;1.458;2023-04-16T10:36:52;4.35;;;1.90;;
47659;SDS011;33403;43.608;1.458;2023-04-16T10:39:19;2.75;;;1.70;;
47659;SDS011;33403;43.608;1.458;2023-04-16T10:41:47;2.50;;;1.70;;
47659;SDS011;33403;43.608;1.458;2023-04-16T10:44:14;5.25;;;2.75;;
47659;SDS011;33403;43.608;1.458;2023-04-16T10:46:42;3.40;;;1.92;;
47659;SDS011;33403;43.608;1.458;2023-04-16T10:51:55;6.82;;;1.98;;
47659;SDS011;33403;43.608;1.458;2023-04-16T10:54:23;4.22;;;1.83;;
47659;SDS011;33403;43.608;1.458;2023-04-16T10:56:50;2.97;;;1.50;;
47659;SDS011;33403;43.608;1.458;2023-04-16T10:59:17;3.10;;;1.80;;
47659;SDS011;33403;43.608;1.458;2023-04-16T11:01:45;3.63;;;1.92;;
47659;SDS011;33403;43.608;1.458;2023-04-16T11:12:15;7.13;;;2.00;;
47659;SDS011;33403;43.608;1.458;2023-04-16T11:14:45;5.35;;;2.15;;
47659;SDS011;33403;43.608;1.458;2023-04-16T11:20:05;3.90;;;2.00;;
47659;SDS011;33403;43.608;1.458;2023-04-16T11:22:36;3.60;;;1.70;;
47659;SDS011;33403;43.608;1.458;2023-04-16T11:25:02;5.03;;;1.90;;
47659;SDS011;33403;43.608;1.458;2023-04-16T11:27:29;6.43;;;2.08;;
47659;SDS011;33403;43.608;1.458;2023-04-16T11:29:59;4.00;;;2.15;;
47659;SDS011;33403;43.608;1.458;2023-04-16T11:32:31;4.57;;;1.85;;
47659;SDS011;33403;43.608;1.458;2023-04-16T11:34:58;4.20;;;1.95;;
47659;SDS011;33403;43.608;1.458;2023-04-16T11:37:34;6.03;;;2.55;;
47659;SDS011;33403;43.608;1.458;2023-04-16T11:40:01;5.38;;;2.20;;
47659;SDS011;33403;43.608;1.458;2023-04-16T11:42:30;3.25;;;1.85;;
47659;SDS011;33403;43.608;1.458;2023-04-16T11:44:57;4.97;;;2.00;;
47659;SDS011;33403;43.608;1.458;2023-04-16T11:47:27;3.28;;;1.90;;
47659;SDS011;33403;43.608;1.458;2023-04-16T11:49:54;4.55;;;1.85;;
47659;SDS011;33403;43.608;1.458;2023-04-16T11:52:26;4.30;;;1.77;;
47659;SDS011;33403;43.608;1.458;2023-04-16T11:54:57;2.67;;;1.70;;
47659;SDS011;33403;43.608;1.458;2023-04-16T11:59:56;5.10;;;1.85;;
47659;SDS011;33403;43.608;1.458;2023-04-16T12:02:35;4.30;;;1.90;;
47659;SDS011;33403;43.608;1.458;2023-04-16T12:05:04;3.25;;;1.80;;
47659;SDS011;33403;43.608;1.458;2023-04-16T12:07:31;3.50;;;1.65;;
47659;SDS011;33403;43.608;1.458;2023-04-16T12:10:07;5.28;;;2.00;;
47659;SDS011;33403;43.608;1.458;2023-04-16T12:12:33;4.10;;;1.92;;
47659;SDS011;33403;43.608;1.458;2023-04-16T12:15:02;3.97;;;1.90;;
47659;SDS011;33403;43.608;1.458;2023-04-16T12:17:29;3.58;;;2.13;;
47659;SDS011;33403;43.608;1.458;2023-04-16T12:19:57;4.18;;;1.90;;
47659;SDS011;33403;43.608;1.458;2023-04-16T12:22:33;2.28;;;1.80;;
47659;SDS011;33403;43.608;1.458;2023-04-16T12:25:01;3.75;;;1.88;;
47659;SDS011;33403;43.608;1.458;2023-04-16T12:30:17;4.32;;;1.90;;
47659;SDS011;33403;43.608;1.458;2023-04-16T12:32:46;5.07;;;2.20;;
47659;SDS011;33403;43.608;1.458;2023-04-16T12:35:13;5.05;;;1.98;;
47659;SDS011;33403;43.608;1.458;2023-04-16T12:37:52;5.30;;;2.30;;
47659;SDS011;33403;43.608;1.458;2023-04-16T12:40:18;3.30;;;2.00;;
47659;SDS011;33403;43.608;1.458;2023-04-16T12:42:44;5.63;;;2.05;;
47659;SDS011;33403;43.608;1.458;2023-04-16T12:45:10;4.35;;;2.10;;
47659;SDS011;33403;43.608;1.458;2023-04-16T12:47:36;5.43;;;2.40;;
47659;SDS011;33403;43.608;1.458;2023-04-16T12:50:01;3.40;;;2.30;;
47659;SDS011;33403;43.608;1.458;2023-04-16T12:52:27;3.97;;;2.35;;
47659;SDS011;33403;43.608;1.458;2023-04-16T12:54:53;3.88;;;2.20;;
47659;SDS011;33403;43.608;1.458;2023-04-16T12:57:19;3.22;;;2.28;;
47659;SDS011;33403;43.608;1.458;2023-04-16T12:59:44;4.15;;;2.42;;
47659;SDS011;33403;43.608;1.458;2023-04-16T13:02:11;3.55;;;2.00;;
47659;SDS011;33403;43.608;1.458;2023-04-16T13:04:37;3.30;;;1.88;;
47659;SDS011;33403;43.608;1.458;2023-04-16T13:07:02;2.65;;;1.60;;
47659;SDS011;33403;43.608;1.458;2023-04-16T13:09:28;4.28;;;2.10;;
47659;SDS011;33403;43.608;1.458;2023-04-16T13:11:53;4.35;;;1.90;;
47659;SDS011;33403;43.608;1.458;2023-04-16T13:14:19;3.80;;;1.90;;
47659;SDS011;33403;43.608;1.458;2023-04-16T13:16:45;2.85;;;1.83;;
47659;SDS011;33403;43.608;1.458;2023-04-16T13:19:11;2.95;;;1.80;;
47659;SDS011;33403;43.608;1.458;2023-04-16T13:21:37;4.43;;;2.03;;
47659;SDS011;33403;43.608;1.458;2023-04-16T13:24:02;3.55;;;2.13;;
47659;SDS011;33403;43.608;1.458;2023-04-16T13:26:28;4.93;;;2.10;;
47659;SDS011;33403;43.608;1.458;2023-04-16T13:28:54;2.83;;;1.73;;
47659;SDS011;33403;43.608;1.458;2023-04-16T13:31:20;3.65;;;1.75;;
47659;SDS011;33403;43.608;1.458;2023-04-16T13:33:46;3.78;;;1.95;;
47659;SDS011;33403;43.608;1.458;2023-04-16T13:36:12;5.70;;;2.00;;
47659;SDS011;33403;43.608;1.458;2023-04-16T13:38:38;2.65;;;1.90;;
47659;SDS011;33403;43.608;1.458;2023-04-16T13:41:04;3.78;;;1.95;;
47659;SDS011;33403;43.608;1.458;2023-04-16T13:43:30;2.38;;;1.60;;
47659;SDS011;33403;43.608;1.458;2023-04-16T13:45:56;3.25;;;1.85;;
47659;SDS011;33403;43.608;1.458;2023-04-16T13:48:22;3.67;;;1.75;;
47659;SDS011;33403;43.608;1.458;2023-04-16T13:50:48;3.20;;;1.70;;
47659;SDS011;33403;43.608;1.458;2023-04-16T13:53:14;2.28;;;1.50;;
47659;SDS011;33403;43.608;1.458;2023-04-16T13:55:40;2.30;;;1.70;;
47659;SDS011;33403;43.608;1.458;2023-04-16T13:58:06;2.65;;;2.10;;
47659;SDS011;33403;43.608;1.458;2023-04-16T14:00:32;2.85;;;1.80;;
47659;SDS011;33403;43.608;1.458;2023-04-16T14:02:58;3.15;;;1.65;;
47659;SDS011;33403;43.608;1.458;2023-04-16T14:05:24;2.60;;;1.60;;
47659;SDS011;33403;43.608;1.458;2023-04-16T14:07:49;2.55;;;1.80;;
47659;SDS011;33403;43.608;1.458;2023-04-16T14:10:15;2.28;;;1.70;;
47659;SDS011;33403;43.608;1.458;2023-04-16T14:12:42;3.22;;;1.70;;
47659;SDS011;33403;43.608;1.458;2023-04-16T14:15:08;3.33;;;1.60;;
47659;SDS011;33403;43.608;1.458;2023-04-16T14:17:34;3.35;;;1.90;;
47659;SDS011;33403;43.608;1.458;2023-04-16T14:20:01;2.63;;;1.67;;
47659;SDS011;33403;43.608;1.458;2023-04-16T14:22:28;2.95;;;1.60;;
47659;SDS011;33403;43.608;1.458;2023-04-16T14:24:54;2.47;;;1.70;;
47659;SDS011;33403;43.608;1.458;2023-04-16T14:27:20;1.58;;;1.45;;
47659;SDS011;33403;43.608;1.458;2023-04-16T14:29:45;1.92;;;1.60;;
47659;SDS011;33403;43.608;1.458;2023-04-16T14:32:11;3.83;;;1.63;;
47659;SDS011;33403;43.608;1.458;2023-04-16T14:34:37;4.35;;;1.73;;
47659;SDS011;33403;43.608;1.458;2023-04-16T14:37:02;2.20;;;1.38;;
47659;SDS011;33403;43.608;1.458;2023-04-16T14:39:29;2.65;;;1.58;;
47659;SDS011;33403;43.608;1.458;2023-04-16T14:41:55;2.35;;;1.50;;
47659;SDS011;33403;43.608;1.458;2023-04-16T14:44:20;3.00;;;1.73;;
47659;SDS011;33403;43.608;1.458;2023-04-16T14:46:46;2.97;;;1.70;;
47659;SDS011;33403;43.608;1.458;2023-04-16T14:49:12;1.90;;;1.65;;
47659;SDS011;33403;43.608;1.458;2023-04-16T14:51:38;3.22;;;1.60;;
47659;SDS011;33403;43.608;1.458;2023-04-16T14:54:04;2.05;;;1.60;;
47659;SDS011;33403;43.608;1.458;2023-04-16T14:56:30;1.80;;;1.60;;
47659;SDS011;33403;43.608;1.458;2023-04-16T14:58:56;3.30;;;1.48;;
47659;SDS011;33403;43.608;1.458;2023-04-16T15:01:21;2.03;;;1.70;;
47659;SDS011;33403;43.608;1.458;2023-04-16T15:03:47;2.85;;;1.70;;
47659;SDS011;33403;43.608;1.458;2023-04-16T15:06:13;1.75;;;1.60;;